TNO7091 KLAX-MMGL
Flight info
| Callsign | TNO7091 |
|---|---|
| Flight time | 2h 33m |
| Altitude | 39000 |
| Route | STHBY1 OTAYY DCT TIJ UT4 LMM UJ3 MZT UJ7 AMULA AMULA1B |
| Aircraft | A333/H-SDE3GHIJ2J3J5M1RVWXY/LB2D1 |
Departure
| Time | 2026-04-21 12:28 |
|---|---|
| Airport | Los Angeles International Airport (KLAX) |
Arrival
| Time | 2026-04-21 15:01 |
|---|---|
| Airport | Guadalajara International Airport (MMGL) |
| Time | Latitude | Longitude | Altitude | Speed | Heading |
|---|---|---|---|---|---|
| 2026-04-21 12:06 | 33.93287 | -118.40567 | 98 ft | 0 kts | 173° |
| 2026-04-21 12:19 | 33.93310 | -118.40570 | 97 ft | 4 kts | 173° |
| 2026-04-21 12:19 | 33.93332 | -118.40573 | 97 ft | 3 kts | 173° |
| 2026-04-21 12:19 | 33.93358 | -118.40579 | 97 ft | 4 kts | 158° |
| 2026-04-21 12:19 | 33.93375 | -118.40594 | 97 ft | 4 kts | 95° |
| 2026-04-21 12:20 | 33.93373 | -118.40624 | 95 ft | 4 kts | 83° |
| 2026-04-21 12:20 | 33.93372 | -118.40635 | 96 ft | 0 kts | 83° |
| 2026-04-21 12:21 | 33.93372 | -118.40634 | 96 ft | 0 kts | 83° |
| 2026-04-21 12:22 | 33.93375 | -118.40605 | 96 ft | 8 kts | 83° |
| 2026-04-21 12:22 | 33.93385 | -118.40508 | 99 ft | 15 kts | 83° |
| 2026-04-21 12:22 | 33.93407 | -118.40360 | 99 ft | 20 kts | 70° |
| 2026-04-21 12:22 | 33.93488 | -118.40198 | 98 ft | 24 kts | 59° |
| 2026-04-21 12:23 | 33.93557 | -118.40004 | 102 ft | 26 kts | 71° |
| 2026-04-21 12:23 | 33.93613 | -118.39784 | 101 ft | 29 kts | 65° |
| 2026-04-21 12:23 | 33.93712 | -118.39569 | 101 ft | 29 kts | 74° |
| 2026-04-21 12:23 | 33.93732 | -118.39396 | 98 ft | 12 kts | 84° |
| 2026-04-21 12:24 | 33.93743 | -118.39290 | 97 ft | 15 kts | 83° |
| 2026-04-21 12:24 | 33.93757 | -118.39145 | 97 ft | 20 kts | 83° |
| 2026-04-21 12:24 | 33.93775 | -118.38973 | 96 ft | 21 kts | 83° |
| 2026-04-21 12:24 | 33.93836 | -118.38833 | 103 ft | 17 kts | 36° |
| 2026-04-21 12:25 | 33.93944 | -118.38817 | 100 ft | 16 kts | 357° |
| 2026-04-21 12:25 | 33.94008 | -118.38727 | 99 ft | 15 kts | 76° |
| 2026-04-21 12:25 | 33.94021 | -118.38599 | 99 ft | 15 kts | 83° |
| 2026-04-21 12:25 | 33.94034 | -118.38468 | 101 ft | 16 kts | 83° |
| 2026-04-21 12:26 | 33.94043 | -118.38379 | 101 ft | 16 kts | 83° |
| 2026-04-21 12:26 | 33.94063 | -118.38192 | 99 ft | 18 kts | 83° |
| 2026-04-21 12:26 | 33.94076 | -118.38062 | 98 ft | 14 kts | 90° |
| 2026-04-21 12:26 | 33.94010 | -118.38008 | 99 ft | 12 kts | 193° |
| 2026-04-21 12:27 | 33.93978 | -118.38089 | 99 ft | 15 kts | 263° |
| 2026-04-21 12:27 | 33.93961 | -118.38253 | 103 ft | 48 kts | 263° |
| 2026-04-21 12:27 | 33.93862 | -118.39220 | 101 ft | 123 kts | 263° |
| 2026-04-21 12:27 | 33.93782 | -118.39988 | 105 ft | 155 kts | 262° |
| 2026-04-21 12:28 | 33.93619 | -118.41349 | 589 ft | 163 kts | 262° |
| 2026-04-21 12:28 | 33.93460 | -118.42677 | 1372 ft | 161 kts | 261° |
| 2026-04-21 12:28 | 33.93295 | -118.44107 | 1714 ft | 185 kts | 261° |
| 2026-04-21 12:28 | 33.92951 | -118.45734 | 1911 ft | 217 kts | 242° |
| 2026-04-21 12:29 | 33.91866 | -118.47070 | 2397 ft | 231 kts | 212° |
| 2026-04-21 12:29 | 33.90447 | -118.48026 | 2839 ft | 235 kts | 207° |
| 2026-04-21 12:29 | 33.88962 | -118.48937 | 3146 ft | 247 kts | 207° |
| 2026-04-21 12:29 | 33.87412 | -118.49890 | 3717 ft | 256 kts | 207° |
| 2026-04-21 12:30 | 33.85829 | -118.50876 | 4537 ft | 256 kts | 207° |
| 2026-04-21 12:30 | 33.84249 | -118.51861 | 5381 ft | 256 kts | 206° |
| 2026-04-21 12:30 | 33.82573 | -118.52583 | 6237 ft | 257 kts | 196° |
| 2026-04-21 12:30 | 33.80828 | -118.53069 | 7066 ft | 258 kts | 194° |
| 2026-04-21 12:31 | 33.79071 | -118.53511 | 7899 ft | 258 kts | 194° |
| 2026-04-21 12:31 | 33.77293 | -118.53840 | 8748 ft | 260 kts | 184° |
| 2026-04-21 12:31 | 33.75485 | -118.53609 | 9614 ft | 264 kts | 172° |
| 2026-04-21 12:31 | 33.73692 | -118.53088 | 10328 ft | 269 kts | 170° |
| 2026-04-21 12:32 | 33.71832 | -118.52433 | 10628 ft | 291 kts | 163° |
| 2026-04-21 12:32 | 33.69995 | -118.51164 | 10870 ft | 320 kts | 144° |
| 2026-04-21 12:32 | 33.68532 | -118.48997 | 11125 ft | 350 kts | 126° |
| 2026-04-21 12:32 | 33.67352 | -118.46373 | 11573 ft | 363 kts | 122° |
| 2026-04-21 12:33 | 33.66201 | -118.43642 | 12189 ft | 369 kts | 122° |
| 2026-04-21 12:33 | 33.65030 | -118.40883 | 12839 ft | 373 kts | 123° |
| 2026-04-21 12:33 | 33.63850 | -118.38133 | 13495 ft | 377 kts | 123° |
| 2026-04-21 12:33 | 33.62638 | -118.35336 | 14118 ft | 380 kts | 123° |
| 2026-04-21 12:34 | 33.61406 | -118.32507 | 14712 ft | 383 kts | 123° |
| 2026-04-21 12:34 | 33.60160 | -118.29654 | 15296 ft | 387 kts | 123° |
| 2026-04-21 12:34 | 33.58904 | -118.26786 | 15862 ft | 391 kts | 123° |
| 2026-04-21 12:34 | 33.57631 | -118.23883 | 16430 ft | 395 kts | 123° |
| 2026-04-21 12:35 | 33.56339 | -118.20943 | 16966 ft | 399 kts | 123° |
| 2026-04-21 12:35 | 33.55036 | -118.17980 | 17503 ft | 404 kts | 123° |
| 2026-04-21 12:35 | 33.53724 | -118.14988 | 18049 ft | 407 kts | 123° |
| 2026-04-21 12:35 | 33.52415 | -118.11958 | 18544 ft | 411 kts | 122° |
| 2026-04-21 12:36 | 33.51116 | -118.08936 | 18993 ft | 415 kts | 122° |
| 2026-04-21 12:36 | 33.49790 | -118.05853 | 19466 ft | 417 kts | 122° |
| 2026-04-21 12:36 | 33.48459 | -118.02760 | 19999 ft | 418 kts | 122° |
| 2026-04-21 12:36 | 33.47000 | -117.99721 | 20465 ft | 417 kts | 130° |
| 2026-04-21 12:37 | 33.45082 | -117.97154 | 20905 ft | 413 kts | 141° |
| 2026-04-21 12:37 | 33.42955 | -117.94838 | 21384 ft | 414 kts | 143° |
| 2026-04-21 12:37 | 33.40781 | -117.92551 | 21782 ft | 418 kts | 143° |
| 2026-04-21 12:37 | 33.38584 | -117.90243 | 22153 ft | 423 kts | 143° |
| 2026-04-21 12:38 | 33.36370 | -117.87908 | 22579 ft | 426 kts | 143° |
| 2026-04-21 12:38 | 33.34145 | -117.85558 | 23015 ft | 428 kts | 143° |
| 2026-04-21 12:38 | 33.31935 | -117.83221 | 23441 ft | 431 kts | 143° |
| 2026-04-21 12:38 | 33.29680 | -117.80837 | 23826 ft | 434 kts | 143° |
| 2026-04-21 12:39 | 33.27410 | -117.78436 | 24166 ft | 437 kts | 143° |
| 2026-04-21 12:39 | 33.25123 | -117.76020 | 24515 ft | 440 kts | 143° |
| 2026-04-21 12:39 | 33.22818 | -117.73584 | 24851 ft | 443 kts | 143° |
| 2026-04-21 12:39 | 33.20493 | -117.71131 | 25159 ft | 447 kts | 143° |
| 2026-04-21 12:40 | 33.18154 | -117.68664 | 25489 ft | 450 kts | 143° |
| 2026-04-21 12:40 | 33.15810 | -117.66168 | 25823 ft | 453 kts | 142° |
| 2026-04-21 12:40 | 33.13490 | -117.63605 | 26160 ft | 456 kts | 142° |
| 2026-04-21 12:40 | 33.11164 | -117.61010 | 26500 ft | 459 kts | 141° |
| 2026-04-21 12:41 | 33.08820 | -117.58394 | 26816 ft | 462 kts | 142° |
| 2026-04-21 12:41 | 33.06471 | -117.55778 | 27147 ft | 464 kts | 142° |
| 2026-04-21 12:41 | 33.04127 | -117.53172 | 27468 ft | 467 kts | 142° |
| 2026-04-21 12:41 | 33.01743 | -117.50523 | 27730 ft | 471 kts | 142° |
| 2026-04-21 12:42 | 32.99334 | -117.47850 | 28007 ft | 475 kts | 142° |
| 2026-04-21 12:42 | 32.96911 | -117.45163 | 28355 ft | 477 kts | 141° |
| 2026-04-21 12:42 | 32.94471 | -117.42459 | 28676 ft | 479 kts | 142° |
| 2026-04-21 12:42 | 32.92027 | -117.39753 | 29001 ft | 482 kts | 142° |
| 2026-04-21 12:43 | 32.89563 | -117.37028 | 29302 ft | 484 kts | 142° |
| 2026-04-21 12:43 | 32.87081 | -117.34285 | 29612 ft | 487 kts | 142° |
| 2026-04-21 12:43 | 32.84597 | -117.31542 | 29916 ft | 490 kts | 142° |
| 2026-04-21 12:43 | 32.82093 | -117.28779 | 30207 ft | 492 kts | 142° |
| 2026-04-21 12:44 | 32.79575 | -117.26003 | 30468 ft | 494 kts | 142° |
| 2026-04-21 12:44 | 32.77047 | -117.23217 | 30740 ft | 496 kts | 142° |
| 2026-04-21 12:44 | 32.74519 | -117.20434 | 31129 ft | 495 kts | 142° |
| 2026-04-21 12:44 | 32.72022 | -117.17686 | 31526 ft | 493 kts | 142° |
| 2026-04-21 12:45 | 32.69507 | -117.14920 | 31914 ft | 492 kts | 142° |
| 2026-04-21 12:45 | 32.67009 | -117.12142 | 32268 ft | 493 kts | 140° |
| 2026-04-21 12:45 | 32.64620 | -117.09210 | 32583 ft | 494 kts | 137° |
| 2026-04-21 12:45 | 32.62281 | -117.06205 | 32837 ft | 497 kts | 136° |
| 2026-04-21 12:46 | 32.59963 | -117.03155 | 33172 ft | 496 kts | 136° |
| 2026-04-21 12:46 | 32.57665 | -117.00107 | 33553 ft | 495 kts | 136° |
| 2026-04-21 12:46 | 32.55367 | -116.97058 | 33927 ft | 494 kts | 136° |
| 2026-04-21 12:46 | 32.53073 | -116.94042 | 34241 ft | 493 kts | 136° |
| 2026-04-21 12:47 | 32.50755 | -116.91047 | 34507 ft | 493 kts | 137° |
| 2026-04-21 12:47 | 32.48422 | -116.88065 | 34756 ft | 493 kts | 137° |
| 2026-04-21 12:47 | 32.46084 | -116.85096 | 34983 ft | 493 kts | 137° |
| 2026-04-21 12:47 | 32.43764 | -116.82154 | 35127 ft | 495 kts | 137° |
| 2026-04-21 12:48 | 32.41412 | -116.79172 | 35368 ft | 495 kts | 137° |
| 2026-04-21 12:48 | 32.39061 | -116.76189 | 35647 ft | 494 kts | 137° |
| 2026-04-21 12:48 | 32.36718 | -116.73214 | 35912 ft | 494 kts | 137° |
| 2026-04-21 12:48 | 32.34373 | -116.70239 | 36139 ft | 494 kts | 137° |
| 2026-04-21 12:49 | 32.32031 | -116.67271 | 36400 ft | 493 kts | 137° |
| 2026-04-21 12:49 | 32.29689 | -116.64303 | 36641 ft | 492 kts | 137° |
| 2026-04-21 12:49 | 32.27350 | -116.61341 | 36828 ft | 493 kts | 137° |
| 2026-04-21 12:49 | 32.25002 | -116.58371 | 36960 ft | 495 kts | 137° |
| 2026-04-21 12:50 | 32.22675 | -116.55430 | 37160 ft | 495 kts | 137° |
| 2026-04-21 12:50 | 32.20325 | -116.52461 | 37497 ft | 492 kts | 137° |
| 2026-04-21 12:50 | 32.17985 | -116.49507 | 37751 ft | 491 kts | 137° |
| 2026-04-21 12:50 | 32.15652 | -116.46560 | 37919 ft | 491 kts | 137° |
| 2026-04-21 12:51 | 32.13313 | -116.43608 | 38120 ft | 491 kts | 137° |
| 2026-04-21 12:51 | 32.10978 | -116.40670 | 38334 ft | 491 kts | 137° |
| 2026-04-21 12:51 | 32.08668 | -116.37770 | 38508 ft | 490 kts | 137° |
| 2026-04-21 12:52 | 32.03964 | -116.31875 | 38734 ft | 494 kts | 137° |
| 2026-04-21 12:52 | 32.01612 | -116.28926 | 38914 ft | 493 kts | 137° |
| 2026-04-21 12:52 | 31.99268 | -116.25989 | 39072 ft | 493 kts | 137° |
| 2026-04-21 12:53 | 31.94572 | -116.20110 | 39113 ft | 491 kts | 137° |
| 2026-04-21 12:53 | 31.89917 | -116.14292 | 39113 ft | 489 kts | 137° |
| 2026-04-21 12:54 | 31.85236 | -116.08453 | 39098 ft | 491 kts | 137° |
| 2026-04-21 12:54 | 31.80538 | -116.02602 | 39111 ft | 492 kts | 137° |
| 2026-04-21 12:55 | 31.75830 | -115.96746 | 39091 ft | 492 kts | 137° |
| 2026-04-21 12:55 | 31.71123 | -115.90901 | 39097 ft | 491 kts | 137° |
| 2026-04-21 12:56 | 31.66455 | -115.85115 | 39080 ft | 491 kts | 137° |
| 2026-04-21 12:56 | 31.61751 | -115.79297 | 39079 ft | 491 kts | 137° |
| 2026-04-21 12:57 | 31.57048 | -115.73487 | 39072 ft | 492 kts | 137° |
| 2026-04-21 12:57 | 31.52337 | -115.67676 | 39073 ft | 491 kts | 137° |
| 2026-04-21 12:58 | 31.47623 | -115.61870 | 39051 ft | 492 kts | 137° |
| 2026-04-21 12:58 | 31.42916 | -115.56083 | 39050 ft | 492 kts | 137° |
| 2026-04-21 12:59 | 31.38191 | -115.50283 | 39026 ft | 492 kts | 137° |
| 2026-04-21 12:59 | 31.33458 | -115.44481 | 39033 ft | 492 kts | 137° |
| 2026-04-21 13:00 | 31.28732 | -115.38694 | 38982 ft | 493 kts | 137° |
| 2026-04-21 13:00 | 31.23988 | -115.32898 | 38998 ft | 494 kts | 137° |
| 2026-04-21 13:01 | 31.19266 | -115.27137 | 38995 ft | 493 kts | 137° |
| 2026-04-21 13:01 | 31.14521 | -115.21356 | 38972 ft | 493 kts | 137° |
| 2026-04-21 13:02 | 31.09775 | -115.15585 | 38968 ft | 493 kts | 137° |
| 2026-04-21 13:02 | 31.02636 | -115.06918 | 38956 ft | 494 kts | 137° |
| 2026-04-21 13:03 | 30.97874 | -115.01148 | 38948 ft | 494 kts | 137° |
| 2026-04-21 13:03 | 30.93110 | -114.95383 | 38951 ft | 493 kts | 137° |
| 2026-04-21 13:04 | 30.88353 | -114.89638 | 38948 ft | 493 kts | 137° |
| 2026-04-21 13:04 | 30.83589 | -114.83890 | 38953 ft | 493 kts | 137° |
| 2026-04-21 13:05 | 30.78858 | -114.78191 | 38954 ft | 493 kts | 137° |
| 2026-04-21 13:05 | 30.74089 | -114.72454 | 38946 ft | 492 kts | 137° |
| 2026-04-21 13:06 | 30.69323 | -114.66732 | 38940 ft | 493 kts | 137° |
| 2026-04-21 13:06 | 30.64550 | -114.61008 | 38941 ft | 494 kts | 137° |
| 2026-04-21 13:07 | 30.59763 | -114.55276 | 38946 ft | 494 kts | 137° |
| 2026-04-21 13:07 | 30.54984 | -114.49563 | 38944 ft | 494 kts | 137° |
| 2026-04-21 13:08 | 30.50188 | -114.43837 | 38946 ft | 494 kts | 138° |
| 2026-04-21 13:08 | 30.46210 | -114.39095 | 38947 ft | 494 kts | 138° |
| 2026-04-21 13:09 | 30.40631 | -114.32456 | 38947 ft | 494 kts | 138° |
| 2026-04-21 13:09 | 30.35840 | -114.26762 | 38952 ft | 493 kts | 138° |
| 2026-04-21 13:10 | 30.31828 | -114.22001 | 38949 ft | 493 kts | 138° |
| 2026-04-21 13:10 | 30.27024 | -114.16308 | 38945 ft | 494 kts | 138° |
| 2026-04-21 13:11 | 30.22245 | -114.10653 | 38952 ft | 495 kts | 138° |
| 2026-04-21 13:11 | 30.17433 | -114.04967 | 38956 ft | 494 kts | 138° |
| 2026-04-21 13:12 | 30.12628 | -113.99296 | 38958 ft | 493 kts | 138° |
| 2026-04-21 13:12 | 30.07813 | -113.93624 | 38963 ft | 493 kts | 138° |
| 2026-04-21 13:13 | 30.03006 | -113.87970 | 38963 ft | 494 kts | 139° |
| 2026-04-21 13:13 | 29.98216 | -113.82344 | 38965 ft | 494 kts | 139° |
| 2026-04-21 13:14 | 29.93384 | -113.76677 | 38968 ft | 494 kts | 139° |
| 2026-04-21 13:14 | 29.88557 | -113.71024 | 38969 ft | 493 kts | 139° |
| 2026-04-21 13:15 | 29.83739 | -113.65389 | 38965 ft | 493 kts | 139° |
| 2026-04-21 13:15 | 29.78952 | -113.59799 | 38965 ft | 494 kts | 139° |
| 2026-04-21 13:16 | 29.74115 | -113.54158 | 38972 ft | 494 kts | 139° |
| 2026-04-21 13:16 | 29.69288 | -113.48537 | 38978 ft | 494 kts | 139° |
| 2026-04-21 13:17 | 29.64464 | -113.42927 | 38979 ft | 494 kts | 139° |
| 2026-04-21 13:17 | 29.59634 | -113.37319 | 38982 ft | 493 kts | 139° |
| 2026-04-21 13:18 | 29.54800 | -113.31714 | 38987 ft | 493 kts | 139° |
| 2026-04-21 13:18 | 29.49975 | -113.26129 | 38989 ft | 493 kts | 140° |
| 2026-04-21 13:19 | 29.45143 | -113.20543 | 38982 ft | 493 kts | 140° |
| 2026-04-21 13:19 | 29.40309 | -113.14962 | 38983 ft | 493 kts | 140° |
| 2026-04-21 13:20 | 29.35464 | -113.09377 | 38986 ft | 493 kts | 140° |
| 2026-04-21 13:20 | 29.30659 | -113.03845 | 38996 ft | 492 kts | 140° |
| 2026-04-21 13:21 | 29.25822 | -112.98285 | 38996 ft | 492 kts | 140° |
| 2026-04-21 13:21 | 29.20979 | -112.92726 | 38993 ft | 492 kts | 140° |
| 2026-04-21 13:22 | 29.16139 | -112.87179 | 38991 ft | 493 kts | 140° |
| 2026-04-21 13:22 | 29.11288 | -112.81626 | 38995 ft | 493 kts | 140° |
| 2026-04-21 13:23 | 29.06439 | -112.76083 | 38994 ft | 493 kts | 140° |
| 2026-04-21 13:23 | 29.01586 | -112.70544 | 38993 ft | 492 kts | 140° |
| 2026-04-21 13:24 | 28.96773 | -112.65057 | 38985 ft | 492 kts | 141° |
| 2026-04-21 13:24 | 28.91922 | -112.59536 | 38997 ft | 493 kts | 141° |
| 2026-04-21 13:25 | 28.87058 | -112.54008 | 38997 ft | 493 kts | 141° |
| 2026-04-21 13:25 | 28.82201 | -112.48496 | 38997 ft | 493 kts | 141° |
| 2026-04-21 13:26 | 28.77338 | -112.42983 | 38996 ft | 493 kts | 141° |
| 2026-04-21 13:26 | 28.72474 | -112.37477 | 38998 ft | 492 kts | 141° |
| 2026-04-21 13:27 | 28.67650 | -112.32024 | 38994 ft | 492 kts | 141° |
| 2026-04-21 13:27 | 28.62785 | -112.26534 | 38995 ft | 492 kts | 141° |
| 2026-04-21 13:28 | 28.57925 | -112.21055 | 38997 ft | 492 kts | 141° |
| 2026-04-21 13:28 | 28.53056 | -112.15575 | 38994 ft | 492 kts | 141° |
| 2026-04-21 13:29 | 28.48195 | -112.10110 | 39001 ft | 492 kts | 141° |
| 2026-04-21 13:29 | 28.43321 | -112.04638 | 38994 ft | 492 kts | 141° |
| 2026-04-21 13:30 | 28.38451 | -111.99180 | 38997 ft | 492 kts | 141° |
| 2026-04-21 13:30 | 28.33602 | -111.93752 | 39001 ft | 492 kts | 141° |
| 2026-04-21 13:31 | 28.28721 | -111.88295 | 38970 ft | 492 kts | 142° |
| 2026-04-21 13:31 | 28.23840 | -111.82845 | 38998 ft | 493 kts | 142° |
| 2026-04-21 13:32 | 28.18947 | -111.77390 | 38996 ft | 493 kts | 142° |
| 2026-04-21 13:32 | 28.14057 | -111.71945 | 39001 ft | 492 kts | 142° |
| 2026-04-21 13:33 | 28.09192 | -111.66535 | 39001 ft | 492 kts | 142° |
| 2026-04-21 13:33 | 28.04308 | -111.61112 | 38982 ft | 492 kts | 142° |
| 2026-04-21 13:34 | 27.99405 | -111.55676 | 38999 ft | 493 kts | 142° |
| 2026-04-21 13:34 | 27.94500 | -111.50244 | 39002 ft | 493 kts | 142° |
| 2026-04-21 13:35 | 27.89588 | -111.44811 | 39002 ft | 493 kts | 142° |
| 2026-04-21 13:35 | 27.84701 | -111.39413 | 39004 ft | 493 kts | 142° |
| 2026-04-21 13:36 | 27.79784 | -111.33989 | 39001 ft | 494 kts | 142° |
| 2026-04-21 13:36 | 27.74861 | -111.28568 | 39004 ft | 494 kts | 142° |
| 2026-04-21 13:37 | 27.69928 | -111.23141 | 39002 ft | 495 kts | 142° |
| 2026-04-21 13:37 | 27.64998 | -111.17725 | 39001 ft | 495 kts | 142° |
| 2026-04-21 13:38 | 27.60095 | -111.12345 | 39002 ft | 494 kts | 142° |
| 2026-04-21 13:38 | 27.55162 | -111.06939 | 38996 ft | 494 kts | 142° |
| 2026-04-21 13:39 | 27.50226 | -111.01538 | 39001 ft | 495 kts | 142° |
| 2026-04-21 13:39 | 27.45291 | -110.96146 | 38999 ft | 495 kts | 142° |
| 2026-04-21 13:40 | 27.40349 | -110.90752 | 39000 ft | 495 kts | 143° |
| 2026-04-21 13:40 | 27.35406 | -110.85364 | 39005 ft | 495 kts | 143° |
| 2026-04-21 13:41 | 27.30454 | -110.79974 | 39001 ft | 495 kts | 143° |
| 2026-04-21 13:41 | 27.25500 | -110.74588 | 39005 ft | 494 kts | 143° |
| 2026-04-21 13:42 | 27.20586 | -110.69252 | 39010 ft | 494 kts | 143° |
| 2026-04-21 13:42 | 27.15627 | -110.63876 | 39013 ft | 494 kts | 143° |
| 2026-04-21 13:43 | 27.10684 | -110.58524 | 39015 ft | 494 kts | 143° |
| 2026-04-21 13:43 | 27.05727 | -110.53163 | 39014 ft | 494 kts | 143° |
| 2026-04-21 13:44 | 27.00770 | -110.47810 | 39015 ft | 495 kts | 143° |
| 2026-04-21 13:44 | 26.95812 | -110.42461 | 39015 ft | 494 kts | 143° |
| 2026-04-21 13:45 | 26.90886 | -110.37154 | 39015 ft | 494 kts | 143° |
| 2026-04-21 13:45 | 26.85926 | -110.31817 | 39021 ft | 494 kts | 143° |
| 2026-04-21 13:46 | 26.80969 | -110.26491 | 39014 ft | 494 kts | 143° |
| 2026-04-21 13:46 | 26.76002 | -110.21160 | 39015 ft | 494 kts | 143° |
| 2026-04-21 13:47 | 26.71033 | -110.15835 | 39017 ft | 494 kts | 143° |
| 2026-04-21 13:47 | 26.66066 | -110.10518 | 39013 ft | 493 kts | 143° |
| 2026-04-21 13:48 | 26.61137 | -110.05247 | 39018 ft | 493 kts | 143° |
| 2026-04-21 13:48 | 26.56172 | -109.99947 | 39011 ft | 493 kts | 143° |
| 2026-04-21 13:49 | 26.52044 | -109.95545 | 39011 ft | 493 kts | 143° |
| 2026-04-21 13:49 | 26.47076 | -109.90253 | 39020 ft | 494 kts | 143° |
| 2026-04-21 13:50 | 26.42106 | -109.84965 | 39036 ft | 494 kts | 143° |
| 2026-04-21 13:50 | 26.37128 | -109.79675 | 39008 ft | 494 kts | 143° |
| 2026-04-21 13:51 | 26.32185 | -109.74428 | 39021 ft | 493 kts | 143° |
| 2026-04-21 13:51 | 26.27216 | -109.69162 | 39022 ft | 493 kts | 143° |
| 2026-04-21 13:52 | 26.22243 | -109.63897 | 39029 ft | 493 kts | 143° |
| 2026-04-21 13:52 | 26.17263 | -109.58632 | 39024 ft | 493 kts | 143° |
| 2026-04-21 13:53 | 26.12277 | -109.53368 | 39025 ft | 493 kts | 143° |
| 2026-04-21 13:53 | 26.07323 | -109.48143 | 39027 ft | 493 kts | 143° |
| 2026-04-21 13:54 | 26.02336 | -109.42889 | 39027 ft | 493 kts | 144° |
| 2026-04-21 13:54 | 25.97351 | -109.37644 | 39029 ft | 493 kts | 144° |
| 2026-04-21 13:55 | 25.92368 | -109.32407 | 39031 ft | 493 kts | 144° |
| 2026-04-21 13:55 | 25.87374 | -109.27166 | 39034 ft | 493 kts | 144° |
| 2026-04-21 13:56 | 25.82413 | -109.21966 | 39038 ft | 493 kts | 144° |
| 2026-04-21 13:56 | 25.77412 | -109.16731 | 39044 ft | 494 kts | 144° |
| 2026-04-21 13:57 | 25.72408 | -109.11498 | 39039 ft | 494 kts | 144° |
| 2026-04-21 13:57 | 25.67424 | -109.06252 | 39045 ft | 495 kts | 142° |
| 2026-04-21 13:58 | 25.62590 | -109.00797 | 39045 ft | 497 kts | 141° |
| 2026-04-21 13:58 | 25.57809 | -108.95263 | 39039 ft | 497 kts | 141° |
| 2026-04-21 13:59 | 25.53041 | -108.89772 | 39043 ft | 497 kts | 141° |
| 2026-04-21 13:59 | 25.48224 | -108.84266 | 39042 ft | 497 kts | 141° |
| 2026-04-21 14:00 | 25.43404 | -108.78777 | 39042 ft | 497 kts | 141° |
| 2026-04-21 14:00 | 25.38576 | -108.73286 | 39042 ft | 497 kts | 141° |
| 2026-04-21 14:01 | 25.33774 | -108.67831 | 39022 ft | 497 kts | 141° |
| 2026-04-21 14:01 | 25.28942 | -108.62351 | 39042 ft | 498 kts | 141° |
| 2026-04-21 14:02 | 25.24098 | -108.56866 | 39046 ft | 498 kts | 141° |
| 2026-04-21 14:03 | 25.16857 | -108.48678 | 39042 ft | 498 kts | 141° |
| 2026-04-21 14:03 | 25.12012 | -108.43208 | 39049 ft | 498 kts | 141° |
| 2026-04-21 14:04 | 25.07165 | -108.37742 | 39026 ft | 498 kts | 141° |
| 2026-04-21 14:04 | 25.02311 | -108.32271 | 39030 ft | 499 kts | 141° |
| 2026-04-21 14:05 | 24.97443 | -108.26790 | 39048 ft | 498 kts | 141° |
| 2026-04-21 14:05 | 24.92593 | -108.21336 | 39049 ft | 498 kts | 141° |
| 2026-04-21 14:06 | 24.87743 | -108.15890 | 39049 ft | 498 kts | 141° |
| 2026-04-21 14:06 | 24.82919 | -108.10479 | 39046 ft | 498 kts | 141° |
| 2026-04-21 14:07 | 24.78064 | -108.05041 | 39039 ft | 499 kts | 141° |
| 2026-04-21 14:07 | 24.73185 | -107.99582 | 39042 ft | 499 kts | 141° |
| 2026-04-21 14:08 | 24.68312 | -107.94135 | 39042 ft | 499 kts | 141° |
| 2026-04-21 14:08 | 24.63433 | -107.88688 | 39040 ft | 499 kts | 141° |
| 2026-04-21 14:09 | 24.58558 | -107.83251 | 39042 ft | 499 kts | 141° |
| 2026-04-21 14:09 | 24.53709 | -107.77851 | 39035 ft | 499 kts | 141° |
| 2026-04-21 14:10 | 24.48825 | -107.72419 | 39043 ft | 500 kts | 140° |
| 2026-04-21 14:10 | 24.43936 | -107.66987 | 39043 ft | 500 kts | 141° |
| 2026-04-21 14:11 | 24.39047 | -107.61561 | 39041 ft | 500 kts | 141° |
| 2026-04-21 14:11 | 24.34157 | -107.56140 | 39043 ft | 500 kts | 141° |
| 2026-04-21 14:12 | 24.29265 | -107.50723 | 39018 ft | 500 kts | 140° |
| 2026-04-21 14:12 | 24.24371 | -107.45312 | 39041 ft | 500 kts | 140° |
| 2026-04-21 14:13 | 24.19504 | -107.39934 | 39040 ft | 499 kts | 140° |
| 2026-04-21 14:13 | 24.14579 | -107.34500 | 39042 ft | 499 kts | 140° |
| 2026-04-21 14:14 | 24.09698 | -107.29121 | 39043 ft | 500 kts | 140° |
| 2026-04-21 14:14 | 24.04803 | -107.23733 | 39046 ft | 500 kts | 140° |
| 2026-04-21 14:15 | 23.99893 | -107.18334 | 39049 ft | 500 kts | 140° |
| 2026-04-21 14:15 | 23.94982 | -107.12941 | 39048 ft | 500 kts | 140° |
| 2026-04-21 14:16 | 23.90095 | -107.07580 | 39045 ft | 500 kts | 140° |
| 2026-04-21 14:16 | 23.85169 | -107.02181 | 39048 ft | 500 kts | 140° |
| 2026-04-21 14:17 | 23.80252 | -106.96799 | 39049 ft | 500 kts | 140° |
| 2026-04-21 14:17 | 23.75333 | -106.91422 | 39048 ft | 500 kts | 140° |
| 2026-04-21 14:18 | 23.70412 | -106.86048 | 39051 ft | 500 kts | 140° |
| 2026-04-21 14:18 | 23.65513 | -106.80703 | 39048 ft | 500 kts | 140° |
| 2026-04-21 14:19 | 23.60596 | -106.75346 | 39051 ft | 500 kts | 140° |
| 2026-04-21 14:19 | 23.55671 | -106.69987 | 39048 ft | 500 kts | 140° |
| 2026-04-21 14:20 | 23.50737 | -106.64623 | 39050 ft | 500 kts | 140° |
| 2026-04-21 14:20 | 23.45810 | -106.59275 | 39048 ft | 500 kts | 140° |
| 2026-04-21 14:21 | 23.40875 | -106.53925 | 39055 ft | 500 kts | 140° |
| 2026-04-21 14:21 | 23.35946 | -106.48587 | 39053 ft | 500 kts | 140° |
| 2026-04-21 14:22 | 23.31036 | -106.43277 | 39053 ft | 500 kts | 140° |
| 2026-04-21 14:22 | 23.26102 | -106.37946 | 39053 ft | 500 kts | 140° |
| 2026-04-21 14:23 | 23.21162 | -106.32615 | 39053 ft | 500 kts | 140° |
| 2026-04-21 14:23 | 23.16349 | -106.27128 | 39066 ft | 505 kts | 131° |
| 2026-04-21 14:24 | 23.12371 | -106.20777 | 39063 ft | 509 kts | 126° |
| 2026-04-21 14:24 | 23.08636 | -106.14282 | 39063 ft | 510 kts | 125° |
| 2026-04-21 14:25 | 23.04913 | -106.07714 | 39060 ft | 510 kts | 125° |
| 2026-04-21 14:25 | 23.01173 | -106.01160 | 39056 ft | 510 kts | 126° |
| 2026-04-21 14:26 | 22.97417 | -105.94621 | 39049 ft | 510 kts | 126° |
| 2026-04-21 14:26 | 22.93682 | -105.88139 | 39031 ft | 510 kts | 125° |
| 2026-04-21 14:27 | 22.89920 | -105.81618 | 39050 ft | 510 kts | 125° |
| 2026-04-21 14:27 | 22.86158 | -105.75104 | 39060 ft | 509 kts | 125° |
| 2026-04-21 14:28 | 22.82387 | -105.68581 | 39049 ft | 509 kts | 126° |
| 2026-04-21 14:28 | 22.78620 | -105.62073 | 39060 ft | 509 kts | 125° |
| 2026-04-21 14:29 | 22.74854 | -105.55577 | 39056 ft | 509 kts | 125° |
| 2026-04-21 14:29 | 22.71089 | -105.49087 | 39066 ft | 509 kts | 125° |
| 2026-04-21 14:30 | 22.67338 | -105.42628 | 39068 ft | 509 kts | 125° |
| 2026-04-21 14:30 | 22.63568 | -105.36146 | 39065 ft | 508 kts | 125° |
| 2026-04-21 14:31 | 22.59799 | -105.29675 | 39072 ft | 508 kts | 125° |
| 2026-04-21 14:31 | 22.56662 | -105.24294 | 39071 ft | 508 kts | 125° |
| 2026-04-21 14:32 | 22.52892 | -105.17838 | 39090 ft | 507 kts | 125° |
| 2026-04-21 14:32 | 22.49116 | -105.11375 | 39085 ft | 507 kts | 126° |
| 2026-04-21 14:33 | 22.45339 | -105.04926 | 39102 ft | 507 kts | 126° |
| 2026-04-21 14:33 | 22.41576 | -104.98500 | 39106 ft | 507 kts | 126° |
| 2026-04-21 14:34 | 22.37796 | -104.92060 | 39111 ft | 507 kts | 125° |
| 2026-04-21 14:34 | 22.34023 | -104.85632 | 39106 ft | 505 kts | 125° |
| 2026-04-21 14:35 | 22.30284 | -104.79273 | 39108 ft | 504 kts | 125° |
| 2026-04-21 14:35 | 22.26512 | -104.72872 | 39100 ft | 505 kts | 125° |
| 2026-04-21 14:36 | 22.22744 | -104.66482 | 39095 ft | 505 kts | 125° |
| 2026-04-21 14:36 | 22.18968 | -104.60085 | 39112 ft | 505 kts | 125° |
| 2026-04-21 14:37 | 22.15188 | -104.53688 | 39099 ft | 505 kts | 126° |
| 2026-04-21 14:37 | 22.11407 | -104.47299 | 38917 ft | 505 kts | 125° |
| 2026-04-21 14:37 | 22.09521 | -104.44113 | 38673 ft | 504 kts | 125° |
| 2026-04-21 14:38 | 22.07638 | -104.40933 | 38370 ft | 501 kts | 125° |
| 2026-04-21 14:38 | 22.05768 | -104.37775 | 37830 ft | 500 kts | 125° |
| 2026-04-21 14:38 | 22.03887 | -104.34605 | 37283 ft | 501 kts | 126° |
| 2026-04-21 14:38 | 22.02032 | -104.31481 | 36721 ft | 500 kts | 126° |
| 2026-04-21 14:39 | 22.00153 | -104.28320 | 36131 ft | 501 kts | 126° |
| 2026-04-21 14:39 | 21.98267 | -104.25148 | 35485 ft | 503 kts | 126° |
| 2026-04-21 14:39 | 21.96373 | -104.21965 | 34812 ft | 505 kts | 126° |
| 2026-04-21 14:39 | 21.94472 | -104.18772 | 34129 ft | 507 kts | 126° |
| 2026-04-21 14:40 | 21.92558 | -104.15558 | 33353 ft | 509 kts | 126° |
| 2026-04-21 14:40 | 21.90643 | -104.12345 | 32635 ft | 510 kts | 126° |
| 2026-04-21 14:40 | 21.88723 | -104.09125 | 31883 ft | 512 kts | 125° |
| 2026-04-21 14:40 | 21.86796 | -104.05894 | 31133 ft | 514 kts | 125° |
| 2026-04-21 14:41 | 21.84868 | -104.02663 | 30537 ft | 512 kts | 124° |
| 2026-04-21 14:41 | 21.82952 | -103.99453 | 29994 ft | 508 kts | 124° |
| 2026-04-21 14:41 | 21.81050 | -103.96267 | 29415 ft | 504 kts | 124° |
| 2026-04-21 14:41 | 21.79165 | -103.93111 | 28881 ft | 499 kts | 124° |
| 2026-04-21 14:42 | 21.77317 | -103.90020 | 28369 ft | 495 kts | 124° |
| 2026-04-21 14:42 | 21.75467 | -103.86928 | 27834 ft | 490 kts | 124° |
| 2026-04-21 14:42 | 21.73629 | -103.83858 | 27320 ft | 485 kts | 124° |
| 2026-04-21 14:42 | 21.71807 | -103.80819 | 26792 ft | 481 kts | 124° |
| 2026-04-21 14:43 | 21.70000 | -103.77806 | 26278 ft | 478 kts | 124° |
| 2026-04-21 14:43 | 21.68202 | -103.74810 | 25752 ft | 475 kts | 124° |
| 2026-04-21 14:43 | 21.66410 | -103.71838 | 25236 ft | 472 kts | 126° |
| 2026-04-21 14:43 | 21.64283 | -103.69177 | 24719 ft | 466 kts | 140° |
| 2026-04-21 14:44 | 21.61648 | -103.67222 | 24186 ft | 459 kts | 156° |
| 2026-04-21 14:44 | 21.58734 | -103.65846 | 23668 ft | 454 kts | 162° |
| 2026-04-21 14:44 | 21.55764 | -103.64730 | 23077 ft | 450 kts | 165° |
| 2026-04-21 14:44 | 21.52786 | -103.63760 | 22588 ft | 444 kts | 166° |
| 2026-04-21 14:45 | 21.49831 | -103.62851 | 22090 ft | 439 kts | 166° |
| 2026-04-21 14:45 | 21.46933 | -103.61966 | 21604 ft | 435 kts | 166° |
| 2026-04-21 14:45 | 21.44041 | -103.61066 | 21119 ft | 431 kts | 166° |
| 2026-04-21 14:45 | 21.41186 | -103.60159 | 20634 ft | 427 kts | 165° |
| 2026-04-21 14:46 | 21.38362 | -103.59246 | 20162 ft | 422 kts | 165° |
| 2026-04-21 14:46 | 21.35555 | -103.58330 | 19671 ft | 419 kts | 165° |
| 2026-04-21 14:46 | 21.32742 | -103.57606 | 19261 ft | 413 kts | 174° |
| 2026-04-21 14:46 | 21.29873 | -103.57311 | 18489 ft | 417 kts | 178° |
| 2026-04-21 14:47 | 21.26961 | -103.57195 | 17841 ft | 416 kts | 181° |
| 2026-04-21 14:47 | 21.24092 | -103.57183 | 17383 ft | 409 kts | 182° |
| 2026-04-21 14:47 | 21.21271 | -103.57217 | 16918 ft | 402 kts | 182° |
| 2026-04-21 14:47 | 21.18497 | -103.57264 | 16481 ft | 395 kts | 182° |
| 2026-04-21 14:48 | 21.15759 | -103.57309 | 16042 ft | 390 kts | 182° |
| 2026-04-21 14:48 | 21.13066 | -103.57344 | 15844 ft | 386 kts | 181° |
| 2026-04-21 14:48 | 21.10382 | -103.57370 | 15799 ft | 383 kts | 181° |
| 2026-04-21 14:48 | 21.07809 | -103.57388 | 15809 ft | 364 kts | 182° |
| 2026-04-21 14:49 | 21.05379 | -103.57618 | 15757 ft | 339 kts | 188° |
| 2026-04-21 14:49 | 21.03109 | -103.57960 | 15567 ft | 321 kts | 190° |
| 2026-04-21 14:49 | 21.00964 | -103.58348 | 15367 ft | 305 kts | 191° |
| 2026-04-21 14:49 | 20.98912 | -103.58755 | 15037 ft | 295 kts | 192° |
| 2026-04-21 14:50 | 20.97578 | -103.59030 | 14739 ft | 293 kts | 192° |
| 2026-04-21 14:50 | 20.94926 | -103.59583 | 14298 ft | 289 kts | 192° |
| 2026-04-21 14:50 | 20.92960 | -103.59990 | 14143 ft | 283 kts | 191° |
| 2026-04-21 14:50 | 20.91088 | -103.60373 | 14059 ft | 264 kts | 191° |
| 2026-04-21 14:51 | 20.89340 | -103.60727 | 13938 ft | 247 kts | 191° |
| 2026-04-21 14:51 | 20.87703 | -103.61057 | 13616 ft | 240 kts | 191° |
| 2026-04-21 14:51 | 20.86074 | -103.61384 | 13221 ft | 236 kts | 191° |
| 2026-04-21 14:51 | 20.84478 | -103.61703 | 12970 ft | 233 kts | 191° |
| 2026-04-21 14:52 | 20.82884 | -103.62022 | 12757 ft | 233 kts | 191° |
| 2026-04-21 14:52 | 20.81289 | -103.62341 | 12556 ft | 233 kts | 191° |
| 2026-04-21 14:52 | 20.79694 | -103.62660 | 12339 ft | 232 kts | 191° |
| 2026-04-21 14:52 | 20.78106 | -103.62977 | 12143 ft | 232 kts | 191° |
| 2026-04-21 14:53 | 20.76522 | -103.63294 | 11925 ft | 231 kts | 191° |
| 2026-04-21 14:53 | 20.74958 | -103.63607 | 11726 ft | 231 kts | 191° |
| 2026-04-21 14:53 | 20.73377 | -103.63923 | 11513 ft | 231 kts | 191° |
| 2026-04-21 14:53 | 20.71794 | -103.64240 | 11308 ft | 231 kts | 192° |
| 2026-04-21 14:54 | 20.70216 | -103.64555 | 11104 ft | 231 kts | 191° |
| 2026-04-21 14:54 | 20.68634 | -103.64813 | 10900 ft | 230 kts | 181° |
| 2026-04-21 14:54 | 20.67122 | -103.64340 | 10635 ft | 230 kts | 146° |
| 2026-04-21 14:54 | 20.65952 | -103.63180 | 10552 ft | 231 kts | 129° |
| 2026-04-21 14:55 | 20.65090 | -103.61730 | 10443 ft | 231 kts | 117° |
| 2026-04-21 14:55 | 20.64413 | -103.60176 | 10265 ft | 230 kts | 113° |
| 2026-04-21 14:55 | 20.63756 | -103.58621 | 10025 ft | 229 kts | 114° |
| 2026-04-21 14:55 | 20.63102 | -103.57083 | 9719 ft | 226 kts | 114° |
| 2026-04-21 14:56 | 20.62458 | -103.55557 | 9395 ft | 224 kts | 113° |
| 2026-04-21 14:56 | 20.61822 | -103.54044 | 9078 ft | 222 kts | 114° |
| 2026-04-21 14:56 | 20.61200 | -103.52562 | 8818 ft | 220 kts | 114° |
| 2026-04-21 14:56 | 20.60578 | -103.51085 | 8536 ft | 216 kts | 114° |
| 2026-04-21 14:57 | 20.59967 | -103.49630 | 8276 ft | 213 kts | 114° |
| 2026-04-21 14:57 | 20.59363 | -103.48194 | 8014 ft | 210 kts | 114° |
| 2026-04-21 14:57 | 20.58769 | -103.46780 | 7764 ft | 208 kts | 113° |
| 2026-04-21 14:57 | 20.58186 | -103.45394 | 7515 ft | 200 kts | 114° |
| 2026-04-21 14:58 | 20.57634 | -103.44082 | 7294 ft | 188 kts | 114° |
| 2026-04-21 14:58 | 20.57112 | -103.42843 | 7069 ft | 179 kts | 113° |
| 2026-04-21 14:58 | 20.56619 | -103.41669 | 6878 ft | 167 kts | 114° |
| 2026-04-21 14:58 | 20.56159 | -103.40575 | 6677 ft | 156 kts | 114° |
| 2026-04-21 14:59 | 20.55722 | -103.39536 | 6485 ft | 153 kts | 114° |
| 2026-04-21 14:59 | 20.55287 | -103.38496 | 6289 ft | 154 kts | 114° |
| 2026-04-21 14:59 | 20.54848 | -103.37449 | 6104 ft | 154 kts | 114° |
| 2026-04-21 14:59 | 20.54412 | -103.36409 | 5888 ft | 153 kts | 114° |
| 2026-04-21 15:00 | 20.53979 | -103.35380 | 5641 ft | 151 kts | 114° |
| 2026-04-21 15:00 | 20.53549 | -103.34360 | 5423 ft | 149 kts | 114° |
| 2026-04-21 15:00 | 20.53126 | -103.33360 | 5189 ft | 147 kts | 114° |
| 2026-04-21 15:00 | 20.52718 | -103.32398 | 5024 ft | 134 kts | 114° |
| 2026-04-21 15:01 | 20.52408 | -103.31651 | 5025 ft | 84 kts | 114° |
| 2026-04-21 15:01 | 20.52253 | -103.31281 | 5028 ft | 26 kts | 115° |
| 2026-04-21 15:01 | 20.52205 | -103.31168 | 5029 ft | 15 kts | 114° |
| 2026-04-21 15:01 | 20.52164 | -103.31070 | 5026 ft | 15 kts | 114° |
| 2026-04-21 15:02 | 20.52119 | -103.30961 | 5027 ft | 16 kts | 114° |
| 2026-04-21 15:02 | 20.52072 | -103.30850 | 5027 ft | 16 kts | 114° |
| 2026-04-21 15:02 | 20.52031 | -103.30733 | 5026 ft | 17 kts | 105° |
| 2026-04-21 15:02 | 20.52017 | -103.30601 | 5024 ft | 18 kts | 90° |
| 2026-04-21 15:03 | 20.52028 | -103.30466 | 5021 ft | 18 kts | 84° |
| 2026-04-21 15:03 | 20.52043 | -103.30328 | 5023 ft | 19 kts | 83° |
| 2026-04-21 15:03 | 20.52064 | -103.30273 | 5019 ft | 3 kts | 92° |
| 2026-04-21 15:03 | 20.52056 | -103.30233 | 5021 ft | 8 kts | 98° |
| 2026-04-21 15:04 | 20.52060 | -103.30159 | 5020 ft | 11 kts | 73° |
| 2026-04-21 15:04 | 20.52106 | -103.30098 | 5019 ft | 10 kts | 58° |
| 2026-04-21 15:04 | 20.52107 | -103.30027 | 5020 ft | 10 kts | 102° |
| 2026-04-21 15:04 | 20.52085 | -103.29956 | 5023 ft | 10 kts | 109° |
| 2026-04-21 15:05 | 20.52057 | -103.29885 | 5019 ft | 10 kts | 116° |
| 2026-04-21 15:05 | 20.52127 | -103.29790 | 5022 ft | 9 kts | 20° |
| 2026-04-21 15:05 | 20.52188 | -103.29761 | 5022 ft | 10 kts | 31° |
| 2026-04-21 15:06 | 20.52250 | -103.29729 | 5022 ft | 10 kts | 19° |
| 2026-04-21 15:06 | 20.52297 | -103.29712 | 5021 ft | 1 kts | 19° |
| 2026-04-21 15:06 | 20.52303 | -103.29710 | 5020 ft | 0 kts | 19° |